Time;durP1;ratioP1;P1;durP2;ratioP2;P2;SDS_P1;SDS_P2;PMS_P1;PMS_P2;Temp;Humidity;BMP_temperature;BMP_pressure;BME280_temperature;BME280_humidity;BME280_pressure;Samples;Min_cycle;Max_cycle;Signal;HPM_P1;HPM_P2
2022/03/13 00:00:10;;;;;;;35.10;21.23;;;;;;;10.73;23.73;101279.51;1900993;100;25815;-85
2022/03/13 00:03:43;;;;;;;48.28;23.05;;;;;;;10.71;23.77;101279.86;1898935;100;25839;-84
2022/03/13 00:07:16;;;;;;;37.30;21.37;;;;;;;10.68;23.86;101274.52;1934319;100;26145;-82
2022/03/13 00:10:50;;;;;;;39.75;22.35;;;;;;;10.64;23.88;101269.61;1948803;99;25899;-83
2022/03/13 00:14:26;;;;;;;38.50;22.60;;;;;;;10.61;23.91;101271.21;1906890;102;25888;-84
2022/03/13 00:18:05;;;;;;;36.90;22.45;;;;;;;10.59;23.95;101272.86;1929255;100;25857;-79
2022/03/13 00:21:46;;;;;;;;;;;;;;;;;;;;;
2022/03/13 00:25:13;;;;;;;35.63;21.73;;;;;;;10.53;24.03;101270.94;1912543;100;25806;-79
2022/03/13 00:28:39;;;;;;;43.05;23.20;;;;;;;10.51;24.06;101269.97;1899381;100;25829;-84
2022/03/13 00:32:10;;;;;;;46.85;25.02;;;;;;;10.49;24.11;101269.44;1907339;100;26008;-85
2022/03/13 00:35:50;;;;;;;41.50;22.62;;;;;;;10.46;24.16;101265.41;1925500;99;26010;-85
2022/03/13 00:39:24;;;;;;;42.23;24.32;;;;;;;10.43;24.16;101262.67;2027211;95;26020;-85
2022/03/13 00:43:11;;;;;;;42.65;23.25;;;;;;;10.40;24.19;101260.87;2020877;94;25764;-79
2022/03/13 00:46:47;;;;;;;41.33;23.83;;;;;;;10.37;24.25;101268.14;1977698;98;25888;-84
2022/03/13 00:50:34;;;;;;;48.90;23.83;;;;;;;10.36;24.27;101262.86;1974295;96;25771;-86
2022/03/13 00:54:13;;;;;;;45.52;25.02;;;;;;;10.32;24.34;101256.64;1972024;98;25886;-86
2022/03/13 00:57:45;;;;;;;43.70;23.73;;;;;;;10.29;24.38;101257.85;1993695;97;26076;-85
2022/03/13 01:01:11;;;;;;;43.85;25.02;;;;;;;10.27;24.43;101267.73;1992738;97;25854;-87
2022/03/13 01:04:48;;;;;;;47.88;26.00;;;;;;;10.24;24.47;101259.34;1995936;96;25909;-80
2022/03/13 01:08:30;;;;;;;45.95;25.05;;;;;;;10.22;24.51;101257.50;1998016;96;25736;-86
2022/03/13 01:12:01;;;;;;;45.88;25.60;;;;;;;10.20;24.57;101258.75;1986403;97;25887;-87
2022/03/13 01:19:25;;;;;;;44.98;24.67;;;;;;;10.14;24.65;101255.48;1974687;97;25852;-84
2022/03/13 01:22:54;;;;;;;43.98;24.77;;;;;;;10.11;24.70;101251.45;1912049;100;25646;-80
2022/03/13 01:26:36;;;;;;;46.85;25.70;;;;;;;10.10;24.73;101255.31;1882062;103;25887;-88
2022/03/13 01:30:20;;;;;;;;;;;;;;;;;;;;;
2022/03/13 01:33:39;;;;;;;48.78;25.60;;;;;;;10.06;24.80;101249.52;1812719;107;26092;-88
2022/03/13 01:37:15;;;;;;;49.18;25.70;;;;;;;10.02;24.84;101244.56;1843810;104;25748;-86
2022/03/13 01:40:47;;;;;;;50.00;25.02;;;;;;;10.01;24.90;101243.22;1840988;104;25940;-86
2022/03/13 01:44:25;;;;;;;44.50;24.87;;;;;;;9.99;24.93;101247.08;1839160;105;26024;-85
2022/03/13 01:47:58;;;;;;;41.35;25.62;;;;;;;9.96;24.98;101242.16;1846946;102;25918;-87
2022/03/13 01:51:33;;;;;;;46.28;26.62;;;;;;;9.93;25.01;101242.92;1889775;101;25385;-87
2022/03/13 01:55:12;;;;;;;43.35;25.37;;;;;;;9.91;25.07;101240.23;1872055;103;25753;-86
2022/03/13 01:58:41;;;;;;;43.87;25.30;;;;;;;9.87;25.12;101230.53;1879390;101;25933;-82
2022/03/13 02:02:05;;;;;;;46.48;25.80;;;;;;;9.85;25.16;101233.47;1868480;104;26034;-86
2022/03/13 02:05:40;;;;;;;49.40;28.12;;;;;;;9.84;25.22;101232.12;1868198;104;25823;-80
2022/03/13 02:12:48;;;;;;;40.88;24.35;;;;;;;9.79;25.28;101235.86;1899951;102;25966;-87
2022/03/13 02:16:20;;;;;;;39.45;25.30;;;;;;;9.77;25.28;101232.71;1886527;103;25921;-87
2022/03/13 02:20:01;;;;;;;43.60;25.02;;;;;;;9.74;25.33;101232.17;1902326;102;25841;-87
2022/03/13 02:23:38;;;;;;;47.80;26.62;;;;;;;9.73;25.34;101233.42;1808447;107;26176;-86
2022/03/13 02:27:12;;;;;;;49.13;27.17;;;;;;;9.70;25.36;101239.38;1806270;107;25811;-86
2022/03/13 02:30:35;;;;;;;41.28;25.02;;;;;;;9.68;25.39;101243.21;1841924;106;25910;-80
2022/03/13 02:34:27;;;;;;;47.38;26.50;;;;;;;9.67;25.42;101245.34;1857941;104;25836;-89
2022/03/13 02:38:01;;;;;;;48.63;26.17;;;;;;;9.63;25.42;101246.05;1831277;105;25813;-85
2022/03/13 02:41:48;;;;;;;44.77;26.10;;;;;;;9.62;25.46;101250.80;1756921;110;25896;-86
2022/03/13 02:45:36;;;;;;;40.78;25.55;;;;;;;9.60;25.47;101252.44;1815045;108;25839;-85
2022/03/13 02:49:09;;;;;;;55.73;27.58;;;;;;;9.59;25.48;101251.08;1776941;107;25979;-86
2022/03/13 02:52:54;;;;;;;44.60;25.65;;;;;;;9.57;25.49;101246.21;1827811;106;26529;-85
2022/03/13 02:56:28;;;;;;;;;;;;;;;;;;;;;
2022/03/13 03:09:07;;;;;;;;;;;;;;;;;;;;;
2022/03/13 03:13:53;;;;;;;40.70;25.30;;;;;;;9.47;25.61;101229.32;1736600;110;25860;-87
2022/03/13 03:17:37;;;;;;;44.75;25.12;;;;;;;9.46;25.64;101233.64;1700110;115;26221;-83
2022/03/13 03:21:11;;;;;;;41.08;23.25;;;;;;;9.46;25.67;101234.95;1716590;110;25939;-87
2022/03/13 03:24:39;;;;;;;49.18;24.47;;;;;;;9.47;25.70;101233.22;1716648;111;25953;-85
2022/03/13 03:31:49;;;;;;;;;;;;;;;;;;;;;
2022/03/13 03:35:12;;;;;;;43.83;24.50;;;;;;;9.50;25.74;101224.66;1745928;110;26076;-84
2022/03/13 03:38:49;;;;;;;41.50;24.67;;;;;;;9.51;25.72;101229.03;1800355;107;26040;-85
2022/03/13 03:42:13;;;;;;;40.08;24.02;;;;;;;9.52;25.73;101232.10;1818624;107;26559;-86
2022/03/13 03:49:16;;;;;;;38.38;22.93;;;;;;;9.54;25.76;101229.16;1795676;107;26059;-85
2022/03/13 03:52:57;;;;;;;43.42;23.18;;;;;;;9.55;25.76;101221.82;1821458;105;25991;-87
2022/03/13 03:56:23;;;;;;;44.70;24.27;;;;;;;9.56;25.76;101222.32;1808445;107;25869;-84
2022/03/13 04:00:14;;;;;;;31.60;21.62;;;;;;;9.56;25.74;101215.81;1836732;105;25858;-83
2022/03/13 04:03:52;;;;;;;39.83;23.20;;;;;;;9.56;25.73;101214.52;1814602;105;25809;-87
2022/03/13 04:07:27;;;;;;;35.85;22.37;;;;;;;9.56;25.75;101225.80;1805860;108;25448;-85
2022/03/13 04:14:25;;;;;;;38.73;23.00;;;;;;;9.57;25.75;101216.28;1816258;107;26037;-85
2022/03/13 04:18:08;;;;;;;40.63;22.20;;;;;;;9.58;25.75;101217.63;1808501;107;25851;-83
2022/03/13 04:21:42;;;;;;;41.88;22.87;;;;;;;9.57;25.72;101214.55;1812165;105;25836;-85
2022/03/13 04:25:19;;;;;;;34.78;20.95;;;;;;;9.58;25.73;101214.14;1818130;107;25954;-85
2022/03/13 04:28:52;;;;;;;39.60;22.07;;;;;;;9.58;25.73;101212.84;1781642;107;25984;-84
2022/03/13 04:32:21;;;;;;;;;;;;;;;9.58;25.70;101222.83;1769943;105;25866;-86
2022/03/13 04:36:03;;;;;;;41.55;21.65;;;;;;;9.58;25.68;101217.63;;;;
2022/03/13 04:39:38;;;;;;;;;;;;;;;;;;;;;
2022/03/13 04:43:23;;;;;;;37.23;20.90;;;;;;;9.57;25.83;101220.19;1715438;113;26206;-86
2022/03/13 04:47:06;;;;;;;41.15;22.20;;;;;;;9.57;25.83;101220.19;1741654;110;25888;-86
2022/03/13 04:50:41;;;;;;;38.35;21.17;;;;;;;9.57;25.65;101226.27;1726674;113;25886;-81
2022/03/13 04:54:39;;;;;;;39.42;20.40;;;;;;;9.55;25.67;101221.44;1702699;114;25690;-85
2022/03/13 04:58:01;;;;;;;36.77;21.07;;;;;;;9.55;25.67;101224.03;1663011;117;25943;-88
2022/03/13 05:01:39;;;;;;;34.53;21.40;;;;;;;9.54;25.68;101226.14;1660594;116;25865;-84
2022/03/13 05:05:15;;;;;;;35.65;20.45;;;;;;;9.55;25.68;101232.23;1700500;114;25938;-86
2022/03/13 05:08:49;;;;;;;40.25;21.73;;;;;;;9.53;25.67;101232.19;1695009;114;26091;-85
2022/03/13 05:12:10;;;;;;;36.03;20.05;;;;;;;9.51;25.67;101222.11;1697204;112;25952;-88
2022/03/13 05:16:03;;;;;;;34.10;20.43;;;;;;;9.52;25.67;101223.91;1722117;113;25953;-85
2022/03/13 05:19:32;;;;;;;39.35;21.23;;;;;;;9.52;25.67;101229.50;1783318;108;25826;-88
2022/03/13 05:23:08;;;;;;;33.20;20.60;;;;;;;9.52;25.67;101236.92;1780264;109;25835;-83
2022/03/13 05:26:37;;;;;;;34.38;20.37;;;;;;;9.53;25.67;101243.90;1781772;109;25885;-85
2022/03/13 05:30:07;;;;;;;36.65;20.45;;;;;;;9.52;25.67;101239.53;1778480;109;25997;-87
2022/03/13 05:33:30;;;;;;;;;;;;;;;9.54;25.68;101246.08;1830264;105;25896;-86
2022/03/13 05:36:53;;;;;;;39.33;20.25;;;;;;;9.56;25.67;101244.03;1878690;102;25874;-84
2022/03/13 05:40:26;;;;;;;38.50;20.27;;;;;;;9.57;25.65;101243.61;1886835;104;25843;-81
2022/03/13 05:43:49;;;;;;;;;;;;;;;9.57;25.66;101249.70;1893397;102;25812;-84
2022/03/13 05:47:31;;;;;;;33.33;20.08;;;;;;;9.59;25.64;101258.48;1946288;98;25955;-86
2022/03/13 05:51:11;;;;;;;36.23;21.85;;;;;;;9.58;25.65;101246.27;2011527;97;26505;-84
2022/03/13 05:54:41;;;;;;;39.78;20.70;;;;;;;9.60;25.65;101252.85;2015155;94;25798;-84
2022/03/13 05:58:23;;;;;;;;;;;;;;;;;;;;;
2022/03/13 06:05:30;;;;;;;37.55;22.05;;;;;;;9.67;25.66;101257.06;2021495;96;25957;-86
2022/03/13 06:08:59;;;;;;;37.33;21.73;;;;;;;9.72;25.76;101266.39;2004073;95;25909;-81
2022/03/13 06:12:20;;;;;;;37.65;22.50;;;;;;;9.74;25.78;101251.70;2013737;96;26362;-85
2022/03/13 06:16:01;;;;;;;36.17;20.85;;;;;;;9.77;25.81;101249.22;2027873;97;26339;-81
2022/03/13 06:19:17;;;;;;;47.33;22.80;;;;;;;9.81;25.78;101255.02;2019354;95;25825;-86
2022/03/13 06:22:45;;;;;;;34.20;20.57;;;;;;;9.86;25.87;101260.02;2020420;96;26194;-83
2022/03/13 06:26:12;;;;;;;39.40;21.37;;;;;;;9.90;25.93;101259.31;1958515;99;25826;-84
2022/03/13 06:29:44;;;;;;;40.15;22.77;;;;;;;9.96;25.92;101263.89;1965026;98;25932;-81
2022/03/13 06:33:26;;;;;;;38.58;21.70;;;;;;;10.00;26.11;101260.57;1964483;97;26115;-84
2022/03/13 06:36:54;;;;;;;42.53;22.52;;;;;;;10.05;26.19;101260.74;1932463;98;25863;-81
2022/03/13 06:40:27;;;;;;;41.88;22.13;;;;;;;10.11;26.36;101266.20;1952208;97;25961;-85
2022/03/13 06:43:58;;;;;;;39.10;21.07;;;;;;;10.16;26.30;101268.59;2024084;96;25912;-83
2022/03/13 06:47:29;;;;;;;32.30;20.50;;;;;;;10.23;26.46;101274.52;2008344;96;25908;-81
2022/03/13 06:50:57;;;;;;;33.67;21.20;;;;;;;10.29;26.45;101277.40;2006310;96;25790;-85
2022/03/13 06:54:25;;;;;;;40.38;22.80;;;;;;;10.35;26.45;101278.03;2022348;95;25856;-83
2022/03/13 06:57:59;;;;;;;41.35;21.70;;;;;;;10.42;26.51;101280.46;2100615;85;25623;-85
2022/03/13 07:01:30;;;;;;;37.13;20.90;;;;;;;10.49;26.50;101279.44;2226542;86;25622;-86
2022/03/13 07:04:59;;;;;;;36.70;20.57;;;;;;;10.56;26.54;101281.87;2259773;86;25645;-85
2022/03/13 07:08:30;;;;;;;35.58;21.87;;;;;;;10.64;26.44;101285.67;2208371;86;25805;-87
2022/03/13 07:12:05;;;;;;;36.98;21.80;;;;;;;10.70;26.51;101280.70;2219125;86;26540;-85
2022/03/13 07:15:36;;;;;;;33.23;20.23;;;;;;;10.78;26.29;101283.16;2223615;86;25465;-86
2022/03/13 07:19:13;;;;;;;32.08;20.40;;;;;;;10.86;26.52;101288.23;2170963;88;25749;-88
2022/03/13 07:22:42;;;;;;;37.45;20.12;;;;;;;10.94;26.28;101295.06;2106284;91;25734;-86
2022/03/13 07:26:10;;;;;;;31.85;19.15;;;;;;;11.04;26.33;101291.06;2111537;91;26130;-87
2022/03/13 07:29:48;;;;;;;38.90;20.27;;;;;;;11.12;26.33;101298.74;2139626;90;25733;-82
2022/03/13 07:33:13;;;;;;;35.05;21.55;;;;;;;11.20;26.26;101298.59;2026305;96;26170;-81
2022/03/13 07:36:39;;;;;;;35.83;20.45;;;;;;;11.29;26.06;101295.00;2000441;97;26252;-82
2022/03/13 07:40:01;;;;;;;34.88;20.23;;;;;;;11.40;26.11;101295.80;2033711;95;25697;-86
2022/03/13 07:43:35;;;;;;;31.70;20.90;;;;;;;11.74;25.93;101303.05;2004967;97;25716;-86
2022/03/13 07:50:48;;;;;;;34.43;22.17;;;;;;;18.21;22.39;101293.61;1883086;101;26330;-86
2022/03/13 07:54:22;;;;;;;31.68;22.58;;;;;;;20.97;20.39;101304.63;1876015;103;25457;-79
2022/03/13 07:57:59;;;;;;;30.55;22.10;;;;;;;23.26;18.64;101312.80;1873618;104;25958;-83
2022/03/13 08:01:28;;;;;;;30.75;22.07;;;;;;;25.30;17.06;101320.70;1814375;104;26585;-85
2022/03/13 08:05:16;;;;;;;34.48;21.12;;;;;;;27.15;15.75;101326.19;1831408;104;25818;-85
2022/03/13 08:08:40;;;;;;;29.95;21.62;;;;;;;28.76;14.67;101327.55;1869113;104;26116;-88
2022/03/13 08:12:07;;;;;;;26.50;21.70;;;;;;;30.30;13.72;101335.27;1906642;102;25979;-81
2022/03/13 08:15:27;;;;;;;26.60;21.10;;;;;;;31.41;13.05;101346.83;1865176;104;25441;-85
2022/03/13 08:18:53;;;;;;;24.30;20.12;;;;;;;32.40;12.54;101344.13;1872423;102;26567;-85
2022/03/13 08:22:17;;;;;;;26.45;21.40;;;;;;;33.23;12.07;101351.39;1936213;99;25989;-84
2022/03/13 08:25:55;;;;;;;24.63;20.48;;;;;;;34.03;11.78;101349.56;1971392;97;25888;-87
2022/03/13 08:29:27;;;;;;;22.98;20.02;;;;;;;34.88;11.49;101354.77;1934827;99;25825;-79
2022/03/13 08:32:56;;;;;;;23.73;19.73;;;;;;;35.66;11.18;101368.73;1901161;100;25932;-86
2022/03/13 08:36:19;;;;;;;20.77;18.67;;;;;;;36.43;10.95;101370.35;1972074;97;25793;-87
2022/03/13 08:39:40;;;;;;;22.30;19.85;;;;;;;37.16;10.72;101365.17;1979307;96;26202;-83
2022/03/13 08:43:15;;;;;;;20.62;18.45;;;;;;;37.89;10.57;101372.43;2023273;94;26247;-83
2022/03/13 08:46:38;;;;;;;20.20;17.70;;;;;;;38.69;10.35;101373.11;2031512;94;26253;-84
2022/03/13 08:50:09;;;;;;;21.62;18.12;;;;;;;39.42;10.07;101370.39;1989704;95;25824;-84
2022/03/13 08:53:46;;;;;;;17.45;15.80;;;;;;;39.96;9.91;101385.89;2024093;94;25935;-83
2022/03/13 08:57:14;;;;;;;17.32;15.65;;;;;;;40.62;9.72;101388.47;1925706;100;25998;-85
2022/03/13 09:00:44;;;;;;;16.97;15.38;;;;;;;41.12;9.50;101378.16;1957053;98;25785;-87
2022/03/13 09:04:18;;;;;;;15.68;14.28;;;;;;;41.59;9.41;101379.83;1971359;97;26104;-88
2022/03/13 09:07:44;;;;;;;16.07;14.30;;;;;;;42.01;9.34;101387.81;1950858;99;25914;-87
2022/03/13 09:11:10;;;;;;;15.48;14.07;;;;;;;42.41;9.19;101380.81;1949920;100;25789;-77
2022/03/13 09:14:46;;;;;;;13.97;12.67;;;;;;;42.73;8.35;101386.45;1946969;99;26800;-78
2022/03/13 09:18:28;;;;;;;12.98;11.75;;;;;;;41.26;7.85;101381.88;1951844;99;25834;-77
2022/03/13 09:22:08;;;;;;;17.90;16.00;;;;;;;40.16;7.85;101382.86;1951662;97;26009;-78
2022/03/13 09:25:35;;;;;;;17.17;15.45;;;;;;;38.73;7.33;101376.81;1992130;96;25765;-78
2022/03/13 09:29:13;;;;;;;19.00;17.00;;;;;;;37.64;7.73;101379.37;1967394;97;25972;-79
2022/03/13 09:32:53;;;;;;;19.12;17.20;;;;;;;36.98;7.59;101370.56;1972901;99;25893;-81
2022/03/13 09:36:37;;;;;;;20.57;15.60;;;;;;;36.18;7.44;101366.59;1908463;102;25823;-79
2022/03/13 09:40:31;;;;;;;20.62;15.55;;;;;;;35.42;7.99;101372.06;1909164;102;26599;-78
2022/03/13 09:43:55;;;;;;;19.85;16.00;;;;;;;35.17;7.94;101377.34;1907049;101;25895;-77
2022/03/13 09:47:28;;;;;;;26.62;14.33;;;;;;;34.07;8.05;101366.00;1911580;102;26507;-79
2022/03/13 09:50:52;;;;;;;23.77;16.97;;;;;;;34.07;8.05;101366.00;1912010;100;25605;-77
2022/03/13 09:54:13;;;;;;;18.52;15.90;;;;;;;33.69;8.63;101374.50;2002795;94;26110;-79
2022/03/13 09:57:48;;;;;;;18.45;15.85;;;;;;;33.13;8.15;101367.72;2043517;94;25757;-77
2022/03/13 10:01:22;;;;;;;19.62;15.35;;;;;;;32.00;8.63;101361.05;2046549;94;25918;-78
2022/03/13 10:04:45;;;;;;;20.00;17.80;;;;;;;32.05;9.05;101356.28;2118313;90;26060;-80
2022/03/13 10:08:09;;;;;;;18.87;16.40;;;;;;;32.41;8.99;101358.91;2146506;90;25783;-78
2022/03/13 10:11:37;;;;;;;24.72;17.60;;;;;;;32.28;9.37;101356.94;2150243;90;25905;-78
2022/03/13 10:15:29;;;;;;;18.85;16.95;;;;;;;32.39;9.21;101355.89;2155450;90;25803;-78
2022/03/13 10:18:57;;;;;;;21.55;16.42;;;;;;;32.21;9.24;101355.03;2166177;89;25997;-79
2022/03/13 10:22:31;;;;;;;17.57;15.68;;;;;;;31.86;9.29;101354.98;2139802;90;25823;-78
2022/03/13 10:26:00;;;;;;;16.45;14.38;;;;;;;31.37;9.26;101356.02;2221407;86;25943;-78
2022/03/13 10:29:46;;;;;;;16.02;14.45;;;;;;;30.77;9.40;101347.98;2220896;86;26469;-77
2022/03/13 10:33:08;;;;;;;17.98;16.30;;;;;;;30.20;9.84;101344.69;2286720;83;25836;-77
2022/03/13 10:36:45;;;;;;;20.75;16.25;;;;;;;29.88;10.02;101337.50;2220551;87;25775;-78
2022/03/13 10:40:21;;;;;;;19.20;16.15;;;;;;;29.64;10.39;101340.25;2205929;88;25928;-77
2022/03/13 10:44:05;;;;;;;23.25;15.83;;;;;;;29.80;10.34;101341.86;2209726;88;25961;-77
2022/03/13 10:47:31;;;;;;;17.75;15.05;;;;;;;29.25;10.45;101325.22;2284538;85;25776;-77
2022/03/13 10:51:00;;;;;;;17.92;14.25;;;;;;;29.56;10.64;101326.67;2270548;85;26529;-77
2022/03/13 10:54:36;;;;;;;22.05;15.35;;;;;;;29.63;10.62;101330.89;2285610;83;25349;-77
2022/03/13 10:58:01;;;;;;;;;;;;;;;29.76;10.73;101327.23;2173597;90;26002;-79
2022/03/13 11:01:25;;;;;;;16.50;13.38;;;;;;;30.22;11.02;101326.68;2144320;90;25799;-78
2022/03/13 11:05:07;;;;;;;19.65;12.93;;;;;;;30.38;10.85;101322.86;2146135;90;26008;-78
2022/03/13 11:08:31;;;;;;;15.43;12.45;;;;;;;30.59;10.88;101322.76;2134666;89;25885;-78
2022/03/13 11:12:06;;;;;;;13.53;9.70;;;;;;;30.66;10.95;101313.94;2146028;90;25795;-76
2022/03/13 11:15:41;;;;;;;11.70;10.58;;;;;;;31.00;10.89;101315.09;2160993;90;25744;-77
2022/03/13 11:19:12;;;;;;;16.02;11.80;;;;;;;31.06;10.65;101317.51;2159857;90;25813;-78
2022/03/13 11:26:19;;;;;;;15.98;10.35;;;;;;;30.60;10.67;101300.75;2141362;90;25852;-79
2022/03/13 11:30:06;;;;;;;11.85;10.60;;;;;;;30.38;10.69;101302.20;2146507;90;26222;-75
2022/03/13 11:33:44;;;;;;;11.18;10.08;;;;;;;30.17;10.74;101293.20;1988473;97;25867;-78
2022/03/13 11:37:22;;;;;;;;;;;;;;;;;;;;;
2022/03/13 11:40:41;;;;;;;10.63;9.80;;;;;;;29.81;10.89;101284.45;1982662;97;25790;-77
2022/03/13 11:44:33;;;;;;;12.68;11.48;;;;;;;29.92;11.04;101286.68;1994029;96;26271;-77
2022/03/13 11:48:09;;;;;;;13.50;11.15;;;;;;;29.82;11.00;101290.22;2029075;93;26014;-77
2022/03/13 11:51:29;;;;;;;13.32;9.38;;;;;;;29.87;11.02;101278.83;2083350;93;25740;-79
2022/03/13 11:54:59;;;;;;;13.55;9.80;;;;;;;29.85;11.56;101270.41;2080500;93;26045;-78
2022/03/13 11:58:56;;;;;;;13.88;9.85;;;;;;;30.08;12.01;101268.95;2060860;94;26828;-76
2022/03/13 12:02:48;;;;;;;10.85;9.73;;;;;;;30.33;11.64;101271.45;2035856;94;26047;-78
2022/03/13 12:06:22;;;;;;;10.45;9.35;;;;;;;29.81;11.34;101271.02;2208076;87;25952;-77
2022/03/13 12:09:45;;;;;;;9.60;8.70;;;;;;;29.81;11.58;101270.14;2127046;91;25780;-78
2022/03/13 12:13:22;;;;;;;11.25;9.35;;;;;;;29.93;11.40;101266.04;2108115;91;25963;-77
2022/03/13 12:20:36;;;;;;;10.65;8.23;;;;;;;29.29;11.03;101266.88;1979503;96;25773;-77
2022/03/13 12:24:21;;;;;;;9.78;8.80;;;;;;;28.82;11.51;101257.51;1974159;97;25790;-76
2022/03/13 12:27:52;;;;;;;12.10;8.73;;;;;;;29.02;11.64;101256.30;1975243;98;25632;-77
2022/03/13 12:31:27;;;;;;;8.23;7.40;;;;;;;29.00;11.41;101247.92;1943082;99;26484;-77
2022/03/13 12:34:51;;;;;;;9.10;8.38;;;;;;;28.01;11.44;101246.59;1971510;97;26259;-79
2022/03/13 12:38:31;;;;;;;9.43;8.43;;;;;;;27.35;11.79;101249.27;1958352;98;25966;-77
2022/03/13 12:42:06;;;;;;;17.55;8.15;;;;;;;26.63;12.08;101247.41;1961141;98;26023;-77
2022/03/13 12:45:52;;;;;;;11.53;9.20;;;;;;;26.63;12.45;101247.41;1951058;98;25875;-78
2022/03/13 12:49:34;;;;;;;9.18;8.45;;;;;;;26.83;12.34;101254.39;1911379;99;25765;-76
2022/03/13 12:53:02;;;;;;;10.28;9.15;;;;;;;26.73;12.48;101248.90;1931067;98;25965;-77
2022/03/13 12:56:35;;;;;;;10.60;8.93;;;;;;;26.87;12.46;101245.84;2013315;95;26232;-78
2022/03/13 13:00:00;;;;;;;9.43;8.30;;;;;;;27.03;12.43;101252.02;2014381;96;25909;-77
2022/03/13 13:03:35;;;;;;;9.73;8.73;;;;;;;27.11;12.42;101253.10;2016139;95;25888;-78
2022/03/13 13:06:56;;;;;;;10.35;9.30;;;;;;;27.12;12.27;101256.19;2017159;95;25908;-76
2022/03/13 13:10:44;;;;;;;;;;;;;;;;;;;;;
2022/03/13 13:14:01;;;;;;;11.30;9.68;;;;;;;26.16;12.75;101244.28;2016775;95;26520;-77
2022/03/13 13:17:25;;;;;;;15.50;10.00;;;;;;;26.42;12.78;101249.76;2050237;93;25774;-77
2022/03/13 13:24:45;;;;;;;10.43;9.43;;;;;;;25.49;12.98;101235.73;2039284;93;26840;-77
2022/03/13 13:27:56;;;;;;;10.23;9.10;;;;;;;25.71;13.18;101241.39;2018351;96;25989;-80
2022/03/13 13:31:27;;;;;;;9.25;8.43;;;;;;;25.72;13.09;101247.61;2045760;94;25904;-80
2022/03/13 13:35:34;;;;;;;11.73;9.93;;;;;;;25.33;13.12;101245.89;2042115;93;26001;-80
2022/03/13 13:39:13;;;;;;;10.23;9.15;;;;;;;25.30;13.28;101245.95;2049145;94;25661;-79
2022/03/13 13:42:49;;;;;;;15.63;10.35;;;;;;;24.94;13.37;101239.20;2048741;93;25792;-80
2022/03/13 13:46:26;;;;;;;14.07;10.20;;;;;;;24.72;13.50;101243.24;2052344;93;26108;-80
2022/03/13 13:49:58;;;;;;;13.55;10.53;;;;;;;24.75;13.71;101236.52;2039678;94;26448;-80
2022/03/13 13:53:41;;;;;;;11.15;10.00;;;;;;;24.71;13.67;101245.50;1957055;95;26436;-79
2022/03/13 13:57:02;;;;;;;10.23;8.85;;;;;;;24.72;13.83;101244.12;2028251;95;25806;-79
2022/03/13 14:00:34;;;;;;;14.75;9.83;;;;;;;24.86;13.69;101241.14;2030923;95;26052;-78
2022/03/13 14:03:57;;;;;;;10.45;8.90;;;;;;;24.96;13.58;101235.16;2050089;91;25864;-80
2022/03/13 14:07:24;;;;;;;23.40;9.68;;;;;;;24.93;13.77;101244.09;2081557;92;25779;-79
2022/03/13 14:10:46;;;;;;;10.63;9.68;;;;;;;24.60;13.91;101235.48;2116879;91;25805;-79
2022/03/13 14:14:12;;;;;;;14.63;10.15;;;;;;;24.53;13.98;101248.53;2128006;91;26621;-79
2022/03/13 14:17:32;;;;;;;16.07;10.05;;;;;;;24.19;14.11;101243.37;2124681;91;26133;-80
2022/03/13 14:21:02;;;;;;;10.28;9.18;;;;;;;24.06;14.18;101247.16;2158829;88;25886;-79
2022/03/13 14:24:24;;;;;;;11.60;9.68;;;;;;;23.76;14.35;101253.95;2241700;86;25899;-79
2022/03/13 14:27:52;;;;;;;10.95;9.95;;;;;;;23.43;14.56;101250.89;2247659;86;25324;-78
2022/03/13 14:31:17;;;;;;;10.80;9.73;;;;;;;22.95;14.64;101253.80;2329365;81;25983;-79
2022/03/13 14:34:38;;;;;;;10.00;8.55;;;;;;;22.27;15.04;101249.27;2309162;81;26293;-80
2022/03/13 14:37:59;;;;;;;10.20;9.08;;;;;;;21.72;15.46;101248.91;2353711;82;25633;-77
2022/03/13 14:41:39;;;;;;;11.28;9.53;;;;;;;21.26;15.70;101251.41;2328760;82;25759;-77
2022/03/13 14:45:06;;;;;;;10.53;9.53;;;;;;;20.79;16.19;101249.94;2338751;83;25833;-78
2022/03/13 14:48:30;;;;;;;9.13;8.33;;;;;;;20.41;16.47;101250.91;2339110;83;25590;-79
2022/03/13 14:51:57;;;;;;;14.68;9.60;;;;;;;19.83;16.80;101241.75;2346189;83;26223;-78
2022/03/13 14:55:20;;;;;;;9.95;8.88;;;;;;;18.76;17.43;101230.55;2337197;83;25636;-78
2022/03/13 14:58:41;;;;;;;12.40;9.95;;;;;;;18.76;17.43;101230.55;2363816;81;26310;-78
2022/03/13 15:05:33;;;;;;;11.05;8.15;;;;;;;18.12;18.57;101254.86;2229418;86;25803;-78
2022/03/13 15:09:14;;;;;;;11.22;7.90;;;;;;;17.75;18.90;101252.77;2247619;85;25932;-78
2022/03/13 15:12:50;;;;;;;10.38;9.20;;;;;;;17.58;19.39;101251.30;2250553;86;25796;-77
2022/03/13 15:16:20;;;;;;;12.58;8.63;;;;;;;17.29;19.51;101253.69;2249441;86;25783;-79
2022/03/13 15:19:59;;;;;;;11.25;9.35;;;;;;;17.12;19.71;101254.83;2243719;86;25786;-79
2022/03/13 15:23:28;;;;;;;11.33;9.23;;;;;;;16.79;20.15;101259.27;2284744;85;25750;-79
2022/03/13 15:26:47;;;;;;;11.08;8.90;;;;;;;16.58;20.39;101258.55;2285310;85;25917;-78
2022/03/13 15:30:30;;;;;;;10.65;9.18;;;;;;;16.19;21.06;101256.68;2244140;87;25915;-78
2022/03/13 15:33:45;;;;;;;14.33;8.68;;;;;;;15.85;21.30;101255.72;2218830;87;25951;-77
2022/03/13 15:37:08;;;;;;;10.50;8.83;;;;;;;15.70;22.14;101261.63;2193251;88;26012;-77
2022/03/13 15:40:34;;;;;;;9.15;8.18;;;;;;;15.55;21.90;101261.77;2286546;85;31259;-78
2022/03/13 15:44:07;;;;;;;10.50;9.05;;;;;;;15.45;22.02;101262.89;2281149;85;25785;-77
2022/03/13 15:47:49;;;;;;;17.42;9.43;;;;;;;15.40;22.43;101273.34;2288586;84;25659;-84
2022/03/13 15:51:16;;;;;;;11.08;8.65;;;;;;;15.22;22.65;101270.34;2289048;84;25706;-80
2022/03/13 15:54:49;;;;;;;12.63;9.18;;;;;;;15.39;23.02;101263.69;2265101;86;25762;-78
2022/03/13 15:58:15;;;;;;;10.05;8.23;;;;;;;15.62;23.11;101267.13;2281432;84;25728;-79
2022/03/13 16:01:44;;;;;;;17.15;8.90;;;;;;;15.66;22.98;101271.58;2263667;86;25898;-81
2022/03/13 16:05:34;;;;;;;;;;;;;;;;;;;;;
2022/03/13 16:09:05;;;;;;;13.20;9.50;;;;;;;15.57;23.22;101277.14;2056669;95;26168;-85
2022/03/13 16:12:38;;;;;;;9.65;8.58;;;;;;;15.52;23.34;101279.22;2072830;93;25850;-81
2022/03/13 16:16:11;;;;;;;15.72;9.13;;;;;;;15.40;23.52;101285.16;2071112;94;25869;-83
2022/03/13 16:19:53;;;;;;;10.68;8.65;;;;;;;15.28;23.70;101289.73;2086495;93;25765;-81
2022/03/13 16:23:19;;;;;;;11.88;8.50;;;;;;;15.21;23.84;101292.23;2101437;93;25757;-81
2022/03/13 16:26:46;;;;;;;10.72;8.43;;;;;;;15.14;24.03;101300.85;2105555;93;25773;-80
2022/03/13 16:30:38;;;;;;;14.10;9.23;;;;;;;15.01;24.26;101300.59;2123106;91;25742;-83
2022/03/13 16:34:21;;;;;;;9.38;8.35;;;;;;;14.86;24.51;101300.30;2080079;93;25935;-82
2022/03/13 16:37:58;;;;;;;11.80;8.40;;;;;;;14.74;24.76;101307.47;2095011;93;26027;-81
2022/03/13 16:41:34;;;;;;;9.90;7.83;;;;;;;14.61;25.05;101313.31;2096823;92;26275;-82
2022/03/13 16:45:03;;;;;;;13.48;9.45;;;;;;;14.39;25.25;101294.44;2096712;92;25765;-79
2022/03/13 16:48:38;;;;;;;12.78;8.93;;;;;;;14.35;25.42;101314.02;1988489;97;25958;-79
2022/03/13 16:52:05;;;;;;;11.85;9.33;;;;;;;14.28;25.68;101329.16;2029766;92;25886;-80
2022/03/13 16:55:33;;;;;;;10.10;8.70;;;;;;;14.12;25.94;101335.34;2113714;92;25798;-81
2022/03/13 16:58:56;;;;;;;10.65;8.50;;;;;;;14.06;26.15;101335.19;2138047;91;26019;-80
2022/03/13 17:02:31;;;;;;;14.55;8.90;;;;;;;13.90;26.38;101339.18;2136821;90;25848;-82
2022/03/13 17:06:20;;;;;;;9.65;7.85;;;;;;;13.77;26.57;101352.81;2133560;90;25821;-81
2022/03/13 17:09:52;;;;;;;11.05;8.48;;;;;;;13.78;26.64;101356.32;2137885;90;25870;-82
2022/03/13 17:13:25;;;;;;;11.18;9.40;;;;;;;13.91;26.66;101362.34;2132767;90;25781;-81
2022/03/13 17:16:57;;;;;;;17.52;8.30;;;;;;;14.03;26.63;101360.02;2127800;90;25784;-81
2022/03/13 17:20:29;;;;;;;8.48;7.58;;;;;;;14.13;26.55;101364.64;2126646;90;26582;-81
2022/03/13 17:24:09;;;;;;;;;;;;;;;;;;;;;